Kandilousa — SYIF — position and weather

sailwx.info

Track history (hours):
 
Tides and Currents Weather Stations Pressure Air Temp Water Temp Dewpoint Dewpoint Depression Visibility Wind Speed Wind Dir Waves Ship Positions

Kandilousa

Last reported at 2014-Sep-18 18:29 UTC. Time now 2014-Sep-18 23:51 UTC.
Position N 40°32' W 073°41'.

Length 183 m; draft 8 m.

Type: Tanker. MMSI: 239354000.

Date/timePositionNaut miles runAvg speedWind from/ knotsBaromVisibWave heightAir tempDewpointWater temp
2014-Sep-18 18:29N 40°32' W 073°41'0 0.0
2014-Sep-18 17:05N 40°32' W 073°41'0 0.1
2014-Sep-18 16:17N 40°33' W 073°41'0 0.1
2014-Sep-18 14:29N 40°32' W 073°41'0 0.0
2014-Sep-18 13:32N 40°32' W 073°41'0 0.0
2014-Sep-18 12:32N 40°32' W 073°41'0 0.0
2014-Sep-18 11:32N 40°32' W 073°41'0 0.0
2014-Sep-18 10:32N 40°32' W 073°41'0 0.0
2014-Sep-18 09:08N 40°32' W 073°41'0 0.0
2014-Sep-18 08:26N 40°32' W 073°41'0 0.0
2014-Sep-18 03:23N 40°32' W 073°41'0 0.0
2014-Sep-18 02:17N 40°32' W 073°41'0 0.0
2014-Sep-18 01:23N 40°32' W 073°41'0 0.0
2014-Sep-18 00:20N 40°32' W 073°41'0 0.0
2014-Sep-17 22:05N 40°32' W 073°41'0 0.0
2014-Sep-17 21:05N 40°32' W 073°41'0 0.1
2014-Sep-17 19:32N 40°33' W 073°41'0 0.0
2014-Sep-17 18:33N 40°32' W 073°41'0 0.1
2014-Sep-17 17:28N 40°32' W 073°41'0 0.1
2014-Sep-17 16:30N 40°32' W 073°41'0 0.0
2014-Sep-17 15:20N 40°32' W 073°41'0 0.1
2014-Sep-17 14:33N 40°32' W 073°41'0 0.0
2014-Sep-17 13:33N 40°32' W 073°41'0 0.1
2014-Sep-17 12:33N 40°32' W 073°41'0 0.0
2014-Sep-17 11:33N 40°32' W 073°41'0 0.0
2014-Sep-17 10:33N 40°32' W 073°41'0 0.0
2014-Sep-17 09:33N 40°32' W 073°41'0 0.0
2014-Sep-17 08:33N 40°32' W 073°41'0 0.0
2014-Sep-17 07:33N 40°32' W 073°41'0 0.0
2014-Sep-17 06:33N 40°32' W 073°41'0 0.0
2014-Sep-17 05:33N 40°32' W 073°41'0 0.0
2014-Sep-17 04:32N 40°32' W 073°41'0 0.1
2014-Sep-17 03:33N 40°32' W 073°41'0 0.1
2014-Sep-17 02:31N 40°32' W 073°41'0 0.4
2014-Sep-17 01:31N 40°32' W 073°41'8 8.5
2014-Sep-17 00:33N 40°27' W 073°50'1512.0
2014-Sep-16 23:21N 40°38' W 074°03'1 0.2
2014-Sep-16 21:07N 40°38' W 074°04'2 0.1
2014-Sep-16 01:27N 40°39' W 074°07'0 0.0
2014-Sep-14 23:32N 40°39' W 074°07'6 6.4
2014-Sep-14 22:32N 40°34' W 074°02'10 9.7
2014-Sep-14 21:33N 40°28' W 073°52'1110.6
2014-Sep-14 20:31N 40°28' W 073°37'1111.6
2014-Sep-14 19:33N 40°29' W 073°23'1211.8
2014-Sep-14 18:33N 40°30' W 073°07'1212.3
2014-Sep-14 17:33N 40°30' W 072°51'1212.2
2014-Sep-14 16:33N 40°31' W 072°35'1212.3
2014-Sep-14 15:33N 40°31' W 072°19'1010.5
2014-Sep-14 14:33N 40°31' W 072°05'1212.5
2014-Sep-14 13:33N 40°31' W 071°49'1312.5
2014-Sep-14 12:33N 40°32' W 071°32'1212.4
2014-Sep-14 11:34N 40°33' W 071°16'1212.4
2014-Sep-14 10:33N 40°33' W 070°60'1212.4
2014-Sep-14 09:33N 40°33' W 070°43'1212.3
2014-Sep-14 08:33N 40°33' W 070°27'1212.2
2014-Sep-14 07:33N 40°34' W 070°11'1212.2
2014-Sep-14 06:32N 40°34' W 069°55'1212.0
2014-Sep-14 05:33N 40°35' W 069°39'1312.3
2014-Sep-14 04:28N 40°35' W 069°22'1212.6
2014-Sep-14 03:33N 40°36' W 069°06'10612.5
2014-Sep-13 19:05N 40°53' W 066°48'  
Track history (hours):
 
Tides and Currents Weather Stations Pressure Air Temp Water Temp Dewpoint Dewpoint Depression Visibility Wind Speed Wind Dir Waves Ship Positions

Kandilousa

Last reported at 2014-Sep-18 18:29 UTC. Time now 2014-Sep-18 23:51 UTC.
Position N 40°32' W 073°41'.

Length 183 m; draft 8 m.

Type: Tanker. MMSI: 239354000.

Date/timePositionNaut miles runAvg speedWind from/ knotsBaromVisibWave heightAir tempDewpointWater temp
2014-Sep-18 18:29N 40°32' W 073°41'0 0.0
2014-Sep-18 17:05N 40°32' W 073°41'0 0.1
2014-Sep-18 16:17N 40°33' W 073°41'0 0.1
2014-Sep-18 14:29N 40°32' W 073°41'0 0.0
2014-Sep-18 13:32N 40°32' W 073°41'0 0.0
2014-Sep-18 12:32N 40°32' W 073°41'0 0.0
2014-Sep-18 11:32N 40°32' W 073°41'0 0.0
2014-Sep-18 10:32N 40°32' W 073°41'0 0.0
2014-Sep-18 09:08N 40°32' W 073°41'0 0.0
2014-Sep-18 08:26N 40°32' W 073°41'0 0.0
2014-Sep-18 03:23N 40°32' W 073°41'0 0.0
2014-Sep-18 02:17N 40°32' W 073°41'0 0.0
2014-Sep-18 01:23N 40°32' W 073°41'0 0.0
2014-Sep-18 00:20N 40°32' W 073°41'0 0.0
2014-Sep-17 22:05N 40°32' W 073°41'0 0.0
2014-Sep-17 21:05N 40°32' W 073°41'0 0.1
2014-Sep-17 19:32N 40°33' W 073°41'0 0.0
2014-Sep-17 18:33N 40°32' W 073°41'0 0.1
2014-Sep-17 17:28N 40°32' W 073°41'0 0.1
2014-Sep-17 16:30N 40°32' W 073°41'0 0.0
2014-Sep-17 15:20N 40°32' W 073°41'0 0.1
2014-Sep-17 14:33N 40°32' W 073°41'0 0.0
2014-Sep-17 13:33N 40°32' W 073°41'0 0.1
2014-Sep-17 12:33N 40°32' W 073°41'0 0.0
2014-Sep-17 11:33N 40°32' W 073°41'0 0.0
2014-Sep-17 10:33N 40°32' W 073°41'0 0.0
2014-Sep-17 09:33N 40°32' W 073°41'0 0.0
2014-Sep-17 08:33N 40°32' W 073°41'0 0.0
2014-Sep-17 07:33N 40°32' W 073°41'0 0.0
2014-Sep-17 06:33N 40°32' W 073°41'0 0.0
2014-Sep-17 05:33N 40°32' W 073°41'0 0.0
2014-Sep-17 04:32N 40°32' W 073°41'0 0.1
2014-Sep-17 03:33N 40°32' W 073°41'0 0.1
2014-Sep-17 02:31N 40°32' W 073°41'0 0.4
2014-Sep-17 01:31N 40°32' W 073°41'8 8.5
2014-Sep-17 00:33N 40°27' W 073°50'1512.0
2014-Sep-16 23:21N 40°38' W 074°03'1 0.2
2014-Sep-16 21:07N 40°38' W 074°04'2 0.1
2014-Sep-16 01:27N 40°39' W 074°07'0 0.0
2014-Sep-14 23:32N 40°39' W 074°07'6 6.4
2014-Sep-14 22:32N 40°34' W 074°02'10 9.7
2014-Sep-14 21:33N 40°28' W 073°52'1110.6
2014-Sep-14 20:31N 40°28' W 073°37'1111.6
2014-Sep-14 19:33N 40°29' W 073°23'1211.8
2014-Sep-14 18:33N 40°30' W 073°07'1212.3
2014-Sep-14 17:33N 40°30' W 072°51'1212.2
2014-Sep-14 16:33N 40°31' W 072°35'1212.3
2014-Sep-14 15:33N 40°31' W 072°19'1010.5
2014-Sep-14 14:33N 40°31' W 072°05'1212.5
2014-Sep-14 13:33N 40°31' W 071°49'1312.5
2014-Sep-14 12:33N 40°32' W 071°32'1212.4
2014-Sep-14 11:34N 40°33' W 071°16'1212.4
2014-Sep-14 10:33N 40°33' W 070°60'1212.4
2014-Sep-14 09:33N 40°33' W 070°43'1212.3
2014-Sep-14 08:33N 40°33' W 070°27'1212.2
2014-Sep-14 07:33N 40°34' W 070°11'1212.2
2014-Sep-14 06:32N 40°34' W 069°55'1212.0
2014-Sep-14 05:33N 40°35' W 069°39'1312.3
2014-Sep-14 04:28N 40°35' W 069°22'1212.6
2014-Sep-14 03:33N 40°36' W 069°06'10612.5
2014-Sep-13 19:05N 40°53' W 066°48'  

Dump ship's entire track history